Time;durP1;ratioP1;P1;durP2;ratioP2;P2;SDS_P1;SDS_P2;PMS_P1;PMS_P2;Temp;Humidity;BMP_temperature;BMP_pressure;BME280_temperature;BME280_humidity;BME280_pressure;Samples;Min_cycle;Max_cycle;Signal;HPM_P1;HPM_P2
2022/09/29 00:01:32;;;;;;;;;3.33;3.00;;;;;;;;5027917;28;51057;-51
2022/09/29 00:03:57;;;;;;;;;5.00;4.00;;;;;;;;5030744;28;51046;-50
2022/09/29 00:06:22;;;;;;;;;3.00;3.00;;;;;;;;5029963;28;51184;-49
2022/09/29 00:08:48;;;;;;;;;4.00;3.00;;;;;;;;5025988;28;51596;-49
2022/09/29 00:11:14;;;;;;;;;5.75;5.75;;;;;;;;5030423;28;50961;-49
2022/09/29 00:13:40;;;;;;;;;5.50;5.25;;;;;;;;5026608;28;51127;-50
2022/09/29 00:16:05;;;;;;;;;3.50;3.00;;;;;;;;5030052;28;51265;-49
2022/09/29 00:18:31;;;;;;;;;2.00;2.00;;;;;;;;5037335;28;51919;-50
2022/09/29 00:21:02;;;;;;;;;3.00;3.00;;;;;;;;5030590;28;51200;-51
2022/09/29 00:23:28;;;;;;;;;3.75;3.00;;;;;;;;5031206;28;51276;-49
2022/09/29 00:26:00;;;;;;;;;4.50;3.75;;;;;;;;5029761;28;51202;-49
2022/09/29 00:28:26;;;;;;;;;4.67;3.33;;;;;;;;5030382;28;53073;-52
2022/09/29 00:30:51;;;;;;;;;3.00;3.00;;;;;;;;5030753;28;50911;-48
2022/09/29 00:33:16;;;;;;;;;4.75;4.00;;;;;;;;5030875;28;51343;-49
2022/09/29 00:35:41;;;;;;;;;4.00;4.00;;;;;;;;5032693;28;51098;-49
2022/09/29 00:38:06;;;;;;;;;4.00;4.00;;;;;;;;5030540;28;51855;-51
2022/09/29 00:40:33;;;;;;;;;4.00;4.00;;;;;;;;5030569;28;51086;-50
2022/09/29 00:42:58;;;;;;;;;5.00;4.50;;;;;;;;5029015;28;51149;-53
2022/09/29 00:45:24;;;;;;;;;3.00;2.67;;;;;;;;5031537;28;51343;-50
2022/09/29 00:47:52;;;;;;;;;3.33;3.00;;;;;;;;5031482;28;52888;-50
2022/09/29 00:50:40;;;;;;;;;4.67;3.67;;;;;;;;5029771;28;51206;-53
2022/09/29 00:53:10;;;;;;;;;3.00;3.00;;;;;;;;5022954;28;51010;-50
2022/09/29 00:55:40;;;;;;;;;3.50;3.50;;;;;;;;5032446;28;51221;-51
2022/09/29 00:58:11;;;;;;;;;3.00;2.00;;;;;;;;5035079;28;51778;-51
2022/09/29 01:00:37;;;;;;;;;2.00;2.00;;;;;;;;5033318;28;51174;-50
2022/09/29 01:03:07;;;;;;;;;0.00;0.00;;;;;;;;5033543;28;51254;-50
2022/09/29 01:05:38;;;;;;;;;3.33;3.33;;;;;;;;5034718;28;51227;-49
2022/09/29 01:08:13;;;;;;;;;3.00;3.00;;;;;;;;5033823;28;51082;-49
2022/09/29 01:10:40;;;;;;;;;2.00;2.00;;;;;;;;5032550;28;51159;-51
2022/09/29 01:13:05;;;;;;;;;6.25;5.25;;;;;;;;5032833;28;50995;-49
2022/09/29 01:15:31;;;;;;;;;2.00;2.00;;;;;;;;5034446;28;51256;-49
2022/09/29 01:17:56;;;;;;;;;3.50;3.00;;;;;;;;5033791;28;52055;-52
2022/09/29 01:20:22;;;;;;;;;4.00;2.67;;;;;;;;5033638;28;50929;-49
2022/09/29 01:22:57;;;;;;;;;2.50;2.50;;;;;;;;5032770;28;51015;-49
2022/09/29 01:25:28;;;;;;;;;2.00;2.00;;;;;;;;5033506;28;50872;-50
2022/09/29 01:28:28;;;;;;;;;3.33;3.33;;;;;;;;5032047;28;51842;-50
2022/09/29 01:31:05;;;;;;;;;3.00;2.00;;;;;;;;5010161;28;51204;-49
2022/09/29 01:33:48;;;;;;;;;3.00;2.00;;;;;;;;5027701;28;51188;-53
2022/09/29 01:36:23;;;;;;;;;4.00;3.00;;;;;;;;5031508;28;51029;-51
2022/09/29 01:38:59;;;;;;;;;3.25;2.50;;;;;;;;5032996;28;52097;-50
2022/09/29 01:41:24;;;;;;;;;2.33;2.33;;;;;;;;5032076;28;51174;-50
2022/09/29 01:43:52;;;;;;;;;2.00;2.00;;;;;;;;5033271;28;51100;-51
2022/09/29 01:46:22;;;;;;;;;3.00;3.00;;;;;;;;5034093;28;51081;-50
2022/09/29 01:48:50;;;;;;;;;2.67;2.67;;;;;;;;5031234;28;51880;-49
2022/09/29 01:51:18;;;;;;;;;2.33;2.33;;;;;;;;5029847;28;51105;-49
2022/09/29 01:53:50;;;;;;;;;2.00;2.00;;;;;;;;5032153;28;51031;-50
2022/09/29 01:56:18;;;;;;;;;2.00;2.00;;;;;;;;5031051;28;51189;-51
2022/09/29 01:58:51;;;;;;;;;2.00;2.00;;;;;;;;5026395;28;52366;-52
2022/09/29 02:01:18;;;;;;;;;4.00;4.00;;;;;;;;5030229;28;51073;-51
2022/09/29 02:03:47;;;;;;;;;3.33;3.00;;;;;;;;5032603;28;51342;-53
2022/09/29 02:06:19;;;;;;;;;3.00;2.00;;;;;;;;5032938;28;51359;-50
2022/09/29 02:08:54;;;;;;;;;2.67;2.67;;;;;;;;5028352;28;51685;-52
2022/09/29 02:11:20;;;;;;;;;2.67;2.67;;;;;;;;5032923;28;51134;-50
2022/09/29 02:13:51;;;;;;;;;2.00;2.00;;;;;;;;5031079;28;51181;-53
2022/09/29 02:16:18;;;;;;;;;2.00;2.00;;;;;;;;5032074;28;50994;-50
2022/09/29 02:18:54;;;;;;;;;3.00;3.00;;;;;;;;5031479;28;52729;-49
2022/09/29 02:21:21;;;;;;;;;2.33;2.33;;;;;;;;5032734;28;51216;-52
2022/09/29 02:23:46;;;;;;;;;3.00;3.00;;;;;;;;5032280;28;50886;-50
2022/09/29 02:26:13;;;;;;;;;0.00;0.00;;;;;;;;5030976;28;51231;-52
2022/09/29 02:28:38;;;;;;;;;2.00;2.00;;;;;;;;5032004;28;51891;-51
2022/09/29 02:31:04;;;;;;;;;2.00;2.00;;;;;;;;5030966;28;51117;-49
2022/09/29 02:33:29;;;;;;;;;1.00;1.00;;;;;;;;5033735;28;51141;-51
2022/09/29 02:36:12;;;;;;;;;2.00;2.00;;;;;;;;5031095;28;51329;-49
2022/09/29 02:38:52;;;;;;;;;3.33;2.67;;;;;;;;5028441;28;52856;-49
2022/09/29 02:41:40;;;;;;;;;3.00;3.00;;;;;;;;5031689;28;51157;-51
2022/09/29 02:44:20;;;;;;;;;4.00;3.00;;;;;;;;5038791;28;51125;-50
2022/09/29 02:47:02;;;;;;;;;3.00;3.00;;;;;;;;5033271;28;51102;-52
2022/09/29 02:49:35;;;;;;;;;2.00;1.67;;;;;;;;5032109;28;52079;-51
2022/09/29 02:52:10;;;;;;;;;3.00;3.00;;;;;;;;5032237;28;50888;-53
2022/09/29 02:54:59;;;;;;;;;2.67;2.00;;;;;;;;5033712;28;51075;-50
2022/09/29 02:57:36;;;;;;;;;2.67;2.67;;;;;;;;5029198;28;51246;-49
2022/09/29 03:00:08;;;;;;;;;1.33;1.33;;;;;;;;5031823;28;51017;-48
2022/09/29 03:02:34;;;;;;;;;1.33;1.33;;;;;;;;5031994;28;51133;-49
2022/09/29 03:04:59;;;;;;;;;2.50;2.50;;;;;;;;5031832;28;51175;-49
2022/09/29 03:07:25;;;;;;;;;2.67;2.67;;;;;;;;5032006;28;51150;-50
2022/09/29 03:09:50;;;;;;;;;1.67;1.67;;;;;;;;5030380;28;52064;-52
2022/09/29 03:12:17;;;;;;;;;3.00;2.00;;;;;;;;5031475;28;51144;-50
2022/09/29 03:14:42;;;;;;;;;2.00;2.00;;;;;;;;5032667;28;50973;-52
2022/09/29 03:17:07;;;;;;;;;2.33;2.00;;;;;;;;5030927;28;51104;-50
2022/09/29 03:19:32;;;;;;;;;3.00;3.00;;;;;;;;5030397;28;51787;-50
2022/09/29 03:21:57;;;;;;;;;3.00;2.00;;;;;;;;5032700;28;50985;-49
2022/09/29 03:24:23;;;;;;;;;1.33;1.00;;;;;;;;5032944;28;51048;-50
2022/09/29 03:26:48;;;;;;;;;2.00;2.00;;;;;;;;5030903;28;51031;-50
2022/09/29 03:29:13;;;;;;;;;1.00;1.00;;;;;;;;5029957;28;51996;-52
2022/09/29 03:31:39;;;;;;;;;3.00;2.00;;;;;;;;5031525;28;50907;-51
2022/09/29 03:34:04;;;;;;;;;2.33;2.00;;;;;;;;5031620;28;51085;-51
2022/09/29 03:36:29;;;;;;;;;2.00;2.00;;;;;;;;5032748;28;51053;-50
2022/09/29 03:38:55;;;;;;;;;2.00;2.00;;;;;;;;5030330;28;52150;-51
2022/09/29 03:41:20;;;;;;;;;4.00;4.00;;;;;;;;5030696;28;51131;-52
2022/09/29 03:43:45;;;;;;;;;2.00;2.00;;;;;;;;5032847;28;51432;-53
2022/09/29 03:46:10;;;;;;;;;2.33;2.33;;;;;;;;5032415;28;50998;-49
2022/09/29 03:48:35;;;;;;;;;3.00;3.00;;;;;;;;5030110;28;51069;-52
2022/09/29 03:51:01;;;;;;;;;2.75;2.75;;;;;;;;5029185;28;52603;-51
2022/09/29 03:53:26;;;;;;;;;4.00;3.67;;;;;;;;5031415;28;51358;-50
2022/09/29 03:55:51;;;;;;;;;2.00;2.00;;;;;;;;5029647;28;51586;-50
2022/09/29 03:58:17;;;;;;;;;3.33;3.33;;;;;;;;5027916;28;51014;-52
2022/09/29 04:00:42;;;;;;;;;4.00;4.00;;;;;;;;5031666;28;51089;-50
2022/09/29 04:03:08;;;;;;;;;3.00;3.00;;;;;;;;5031411;28;51092;-49
2022/09/29 04:05:37;;;;;;;;;4.25;3.50;;;;;;;;5031861;28;51006;-50
2022/09/29 04:08:02;;;;;;;;;3.00;3.00;;;;;;;;5025730;28;52403;-51
2022/09/29 04:10:27;;;;;;;;;4.00;3.00;;;;;;;;5029188;28;50998;-51
2022/09/29 04:12:53;;;;;;;;;4.00;3.00;;;;;;;;5031315;28;51176;-52
2022/09/29 04:15:18;;;;;;;;;5.00;4.50;;;;;;;;5030876;28;50978;-50
2022/09/29 04:17:43;;;;;;;;;4.25;4.25;;;;;;;;5030450;28;52303;-52
2022/09/29 04:20:08;;;;;;;;;3.00;3.00;;;;;;;;5030331;28;50939;-51
2022/09/29 04:22:33;;;;;;;;;3.00;3.00;;;;;;;;5031654;28;51062;-51
2022/09/29 04:24:58;;;;;;;;;4.00;3.00;;;;;;;;5032404;28;51085;-50
2022/09/29 04:27:24;;;;;;;;;4.25;4.25;;;;;;;;5032401;28;51107;-50
2022/09/29 04:29:49;;;;;;;;;1.00;1.00;;;;;;;;5031829;28;51032;-52
2022/09/29 04:32:14;;;;;;;;;3.75;3.50;;;;;;;;5035472;28;51077;-52
2022/09/29 04:34:40;;;;;;;;;5.00;4.00;;;;;;;;5035434;28;51200;-53
2022/09/29 04:37:10;;;;;;;;;3.33;3.00;;;;;;;;5032837;28;52207;-50
2022/09/29 04:39:35;;;;;;;;;3.00;3.00;;;;;;;;5029870;28;51094;-51
2022/09/29 04:42:00;;;;;;;;;5.50;5.00;;;;;;;;5033149;28;51248;-53
2022/09/29 04:44:26;;;;;;;;;5.00;4.75;;;;;;;;5035921;28;51109;-53
2022/09/29 04:46:51;;;;;;;;;4.75;4.00;;;;;;;;5032719;28;51617;-51
2022/09/29 04:49:19;;;;;;;;;4.00;4.00;;;;;;;;5033859;28;51017;-50
2022/09/29 04:51:44;;;;;;;;;3.00;3.00;;;;;;;;5034240;28;50997;-51
2022/09/29 04:54:10;;;;;;;;;4.00;4.00;;;;;;;;5034179;28;50880;-50
2022/09/29 04:56:35;;;;;;;;;4.00;3.00;;;;;;;;5036309;28;51893;-47
2022/09/29 04:59:00;;;;;;;;;3.33;3.33;;;;;;;;5033358;28;51144;-49
2022/09/29 05:01:25;;;;;;;;;3.33;3.33;;;;;;;;5034933;28;51049;-50
2022/09/29 05:03:51;;;;;;;;;4.00;3.00;;;;;;;;5034862;28;51222;-50
2022/09/29 05:06:16;;;;;;;;;3.00;3.00;;;;;;;;5033423;28;51005;-50
2022/09/29 05:08:41;;;;;;;;;3.33;3.33;;;;;;;;5034654;28;51012;-50
2022/09/29 05:11:07;;;;;;;;;5.67;4.00;;;;;;;;5033820;28;51484;-51
2022/09/29 05:13:33;;;;;;;;;3.33;3.33;;;;;;;;5033475;28;50950;-53
2022/09/29 05:15:58;;;;;;;;;4.00;4.00;;;;;;;;5031129;28;51054;-51
2022/09/29 05:18:24;;;;;;;;;4.00;3.00;;;;;;;;5034445;28;51061;-49
2022/09/29 05:20:49;;;;;;;;;4.00;4.00;;;;;;;;5032525;28;51094;-50
2022/09/29 05:23:14;;;;;;;;;3.00;3.00;;;;;;;;5034694;28;51059;-50
2022/09/29 05:25:40;;;;;;;;;2.00;2.00;;;;;;;;5032136;28;51020;-52
2022/09/29 05:28:05;;;;;;;;;7.75;7.00;;;;;;;;5032947;28;51064;-52
2022/09/29 05:30:30;;;;;;;;;5.00;5.00;;;;;;;;5031105;28;52400;-50
2022/09/29 05:32:55;;;;;;;;;4.00;3.75;;;;;;;;5035192;28;51287;-49
2022/09/29 05:35:21;;;;;;;;;3.75;3.75;;;;;;;;5033191;28;51741;-50
2022/09/29 05:37:46;;;;;;;;;2.00;2.00;;;;;;;;5033549;28;52650;-51
2022/09/29 05:40:11;;;;;;;;;3.33;3.33;;;;;;;;5034268;28;51343;-53
2022/09/29 05:42:36;;;;;;;;;4.67;4.00;;;;;;;;5033110;28;51390;-51
2022/09/29 05:45:02;;;;;;;;;6.25;6.00;;;;;;;;5033219;28;51398;-49
2022/09/29 05:47:27;;;;;;;;;4.33;4.33;;;;;;;;5041485;28;51145;-49
2022/09/29 05:49:52;;;;;;;;;6.25;5.00;;;;;;;;5033831;28;51322;-48
2022/09/29 05:52:18;;;;;;;;;5.50;4.50;;;;;;;;5034154;28;51034;-50
2022/09/29 05:54:43;;;;;;;;;6.00;5.00;;;;;;;;5033646;28;52980;-51
2022/09/29 05:57:08;;;;;;;;;3.00;3.00;;;;;;;;5033938;28;50973;-52
2022/09/29 05:59:33;;;;;;;;;4.50;4.50;;;;;;;;5033653;28;51005;-51
2022/09/29 06:01:58;;;;;;;;;6.00;5.00;;;;;;;;5033711;28;51081;-53
2022/09/29 06:04:24;;;;;;;;;7.00;5.50;;;;;;;;5033330;28;51080;-52
2022/09/29 06:06:49;;;;;;;;;4.50;4.25;;;;;;;;5034242;28;50943;-50
2022/09/29 06:09:14;;;;;;;;;6.75;6.00;;;;;;;;5028230;28;51124;-50
2022/09/29 06:11:40;;;;;;;;;5.00;4.50;;;;;;;;5033899;28;51033;-50
2022/09/29 06:14:05;;;;;;;;;4.25;4.00;;;;;;;;5031600;28;51621;-52
2022/09/29 06:16:31;;;;;;;;;5.00;5.00;;;;;;;;5039663;28;51040;-53
2022/09/29 06:18:58;;;;;;;;;5.50;5.00;;;;;;;;5033083;28;50970;-51
2022/09/29 06:21:24;;;;;;;;;4.50;4.00;;;;;;;;5033739;28;51209;-52
2022/09/29 06:23:50;;;;;;;;;4.00;4.00;;;;;;;;5033035;28;52300;-52
2022/09/29 06:26:16;;;;;;;;;4.75;4.75;;;;;;;;5033408;28;51041;-50
2022/09/29 06:28:41;;;;;;;;;5.00;4.75;;;;;;;;5033473;28;51014;-51
2022/09/29 06:31:09;;;;;;;;;6.25;5.50;;;;;;;;5033397;28;50935;-52
2022/09/29 06:33:35;;;;;;;;;4.00;4.00;;;;;;;;5031598;28;51310;-51
2022/09/29 06:38:46;;;;;;;;;5.50;5.25;;;;;;;;5033705;28;50813;-49
2022/09/29 06:41:11;;;;;;;;;5.50;5.50;;;;;;;;5035831;28;50856;-49
2022/09/29 06:43:37;;;;;;;;;4.75;4.75;;;;;;;;5038494;28;51964;-50
2022/09/29 06:46:03;;;;;;;;;6.00;5.75;;;;;;;;5033404;28;50903;-49
2022/09/29 06:48:28;;;;;;;;;8.50;7.50;;;;;;;;5032588;28;50919;-52
2022/09/29 06:50:54;;;;;;;;;7.00;6.00;;;;;;;;5033925;28;50826;-49
2022/09/29 06:53:19;;;;;;;;;5.25;5.25;;;;;;;;5033413;28;51980;-49
2022/09/29 06:55:50;;;;;;;;;5.00;5.00;;;;;;;;5034511;28;50977;-51
2022/09/29 06:58:16;;;;;;;;;5.25;5.00;;;;;;;;5034295;28;50942;-51
2022/09/29 07:00:41;;;;;;;;;6.50;6.00;;;;;;;;5033596;28;51300;-50
2022/09/29 07:03:06;;;;;;;;;9.00;9.00;;;;;;;;5032370;28;51265;-53
2022/09/29 07:05:34;;;;;;;;;8.25;8.00;;;;;;;;5032654;28;50938;-53
2022/09/29 07:08:09;;;;;;;;;8.25;7.25;;;;;;;;5023178;28;50860;-49
2022/09/29 07:10:35;;;;;;;;;10.00;9.25;;;;;;;;5026108;28;50947;-52
2022/09/29 07:13:00;;;;;;;;;7.50;7.50;;;;;;;;5026032;27;51166;-51
2022/09/29 07:15:34;;;;;;;;;5.75;5.75;;;;;;;;5028006;27;52933;-49
2022/09/29 07:18:00;;;;;;;;;7.00;6.00;;;;;;;;5064059;27;51045;-53
2022/09/29 07:20:26;;;;;;;;;6.25;6.00;;;;;;;;5025897;28;51272;-52
2022/09/29 07:22:52;;;;;;;;;6.50;5.50;;;;;;;;5024287;28;50995;-51
2022/09/29 07:25:17;;;;;;;;;6.75;6.75;;;;;;;;5025062;27;51612;-51
2022/09/29 07:27:42;;;;;;;;;9.50;9.00;;;;;;;;5025407;28;50985;-51
2022/09/29 07:30:08;;;;;;;;;9.25;9.00;;;;;;;;5024624;27;51169;-50
2022/09/29 07:32:33;;;;;;;;;9.50;9.00;;;;;;;;5025394;28;51210;-50
2022/09/29 07:34:58;;;;;;;;;10.00;10.00;;;;;;;;5024766;27;52101;-50
2022/09/29 07:37:24;;;;;;;;;6.00;6.00;;;;;;;;5024959;27;51142;-48
2022/09/29 07:39:50;;;;;;;;;8.50;8.50;;;;;;;;5025040;28;51222;-51
2022/09/29 07:42:17;;;;;;;;;9.75;8.50;;;;;;;;5025265;28;51001;-52
2022/09/29 07:44:42;;;;;;;;;8.50;8.00;;;;;;;;5024407;27;53838;-49
2022/09/29 07:47:07;;;;;;;;;8.00;8.00;;;;;;;;5025138;28;51019;-50
2022/09/29 07:49:32;;;;;;;;;7.25;7.00;;;;;;;;5025124;27;51140;-51
2022/09/29 07:51:58;;;;;;;;;8.75;8.75;;;;;;;;5025825;27;51247;-51
2022/09/29 07:54:23;;;;;;;;;13.00;12.00;;;;;;;;5025003;28;51791;-55
2022/09/29 07:56:48;;;;;;;;;9.50;9.50;;;;;;;;5023216;28;51015;-49
2022/09/29 07:59:13;;;;;;;;;9.50;9.25;;;;;;;;5024254;27;50865;-49
2022/09/29 08:01:38;;;;;;;;;10.00;9.50;;;;;;;;5026993;27;51050;-49
2022/09/29 08:04:04;;;;;;;;;13.75;11.00;;;;;;;;5023825;28;52227;-50
2022/09/29 08:06:29;;;;;;;;;10.25;10.25;;;;;;;;5024103;27;50837;-51
2022/09/29 08:08:54;;;;;;;;;8.50;8.00;;;;;;;;5024793;28;51153;-50
2022/09/29 08:11:20;;;;;;;;;7.50;7.50;;;;;;;;5021029;27;51019;-52
2022/09/29 08:13:46;;;;;;;;;9.00;9.00;;;;;;;;5023638;28;51173;-50
2022/09/29 08:16:12;;;;;;;;;10.00;9.00;;;;;;;;5061627;27;51082;-52
2022/09/29 08:18:37;;;;;;;;;9.00;8.75;;;;;;;;5024979;27;51143;-50
2022/09/29 08:21:04;;;;;;;;;8.00;8.00;;;;;;;;5011413;28;51090;-50
2022/09/29 08:23:30;;;;;;;;;9.00;8.00;;;;;;;;5010718;28;51089;-50
2022/09/29 08:26:01;;;;;;;;;8.00;7.67;;;;;;;;5011061;28;50920;-51
2022/09/29 08:28:26;;;;;;;;;7.67;7.33;;;;;;;;5010998;28;51079;-53
2022/09/29 08:30:52;;;;;;;;;7.33;6.67;;;;;;;;5010857;27;50971;-51
2022/09/29 08:33:17;;;;;;;;;11.00;11.00;;;;;;;;5010980;27;51013;-50
2022/09/29 08:35:42;;;;;;;;;10.00;9.00;;;;;;;;5010622;28;51031;-51
2022/09/29 08:38:07;;;;;;;;;11.00;10.00;;;;;;;;5009632;28;51065;-51
2022/09/29 08:40:33;;;;;;;;;11.00;10.67;;;;;;;;5011281;28;51061;-51
2022/09/29 08:43:08;;;;;;;;;11.00;9.67;;;;;;;;5008344;28;54416;-53
2022/09/29 08:45:38;;;;;;;;;11.67;11.33;;;;;;;;5010646;28;50971;-52
2022/09/29 08:48:13;;;;;;;;;10.00;9.33;;;;;;;;5011114;28;51047;-53
2022/09/29 08:50:46;;;;;;;;;9.33;9.33;;;;;;;;5011087;28;51127;-50
2022/09/29 08:53:15;;;;;;;;;8.00;8.00;;;;;;;;5011425;28;51869;-51
2022/09/29 08:55:51;;;;;;;;;10.00;9.33;;;;;;;;5010312;27;51111;-49
2022/09/29 08:58:16;;;;;;;;;8.00;8.00;;;;;;;;5010833;28;51096;-54
2022/09/29 09:00:44;;;;;;;;;9.00;8.50;;;;;;;;5012653;27;51367;-52
2022/09/29 09:03:12;;;;;;;;;13.33;12.67;;;;;;;;5010825;27;51224;-50
2022/09/29 09:05:52;;;;;;;;;11.00;10.00;;;;;;;;5010590;27;51189;-52
2022/09/29 09:08:23;;;;;;;;;9.00;9.00;;;;;;;;4997334;27;51068;-53
2022/09/29 09:11:15;;;;;;;;;13.00;12.67;;;;;;;;5011289;28;50910;-50
2022/09/29 09:13:57;;;;;;;;;12.00;10.25;;;;;;;;5010359;28;51069;-50
2022/09/29 09:16:40;;;;;;;;;10.75;10.50;;;;;;;;5054425;27;50918;-51
2022/09/29 09:19:09;;;;;;;;;11.00;9.00;;;;;;;;5009100;28;51392;-50
2022/09/29 09:21:34;;;;;;;;;8.75;8.25;;;;;;;;5010509;27;51020;-53
2022/09/29 09:24:07;;;;;;;;;11.75;11.50;;;;;;;;5010586;28;51005;-50
2022/09/29 09:26:38;;;;;;;;;10.50;9.75;;;;;;;;5010974;28;51067;-51
2022/09/29 09:29:06;;;;;;;;;10.50;9.75;;;;;;;;5009678;27;50893;-50
2022/09/29 09:31:45;;;;;;;;;11.75;10.75;;;;;;;;5009469;27;50987;-50
2022/09/29 09:34:13;;;;;;;;;10.00;9.50;;;;;;;;5010049;28;51980;-52
2022/09/29 09:36:47;;;;;;;;;6.00;6.00;;;;;;;;5010484;28;51182;-53
2022/09/29 09:39:13;;;;;;;;;9.75;9.00;;;;;;;;5010478;28;51115;-51
2022/09/29 09:41:39;;;;;;;;;7.00;7.00;;;;;;;;5010432;27;50917;-50
2022/09/29 09:44:15;;;;;;;;;8.00;8.00;;;;;;;;5008285;28;52008;-49
2022/09/29 09:46:44;;;;;;;;;30.75;27.25;;;;;;;;5009906;28;51011;-50
2022/09/29 09:49:15;;;;;;;;;12.25;12.00;;;;;;;;5009813;28;51062;-50
2022/09/29 09:51:43;;;;;;;;;14.00;12.75;;;;;;;;5008369;28;51322;-52
2022/09/29 09:54:23;;;;;;;;;12.00;10.25;;;;;;;;5010997;28;51379;-51
2022/09/29 09:57:12;;;;;;;;;13.50;12.25;;;;;;;;5009562;28;50842;-50
2022/09/29 09:59:43;;;;;;;;;13.75;13.75;;;;;;;;5010458;28;50952;-51
2022/09/29 10:02:16;;;;;;;;;12.00;11.00;;;;;;;;5014166;27;51197;-51
2022/09/29 10:04:42;;;;;;;;;13.50;12.25;;;;;;;;5009247;28;52175;-53
2022/09/29 10:07:07;;;;;;;;;15.75;14.25;;;;;;;;5009070;28;51087;-52
2022/09/29 10:09:32;;;;;;;;;14.00;14.00;;;;;;;;5009998;27;51127;-53
2022/09/29 10:11:58;;;;;;;;;13.25;12.75;;;;;;;;5004318;27;51150;-51
2022/09/29 10:14:25;;;;;;;;;16.75;15.00;;;;;;;;5009155;27;51694;-49
2022/09/29 10:16:53;;;;;;;;;15.75;15.00;;;;;;;;5054781;27;51784;-50
2022/09/29 10:19:22;;;;;;;;;16.50;16.25;;;;;;;;5010082;27;51046;-53
2022/09/29 10:21:48;;;;;;;;;21.00;17.75;;;;;;;;5009490;28;51131;-48
2022/09/29 10:24:21;;;;;;;;;19.25;17.50;;;;;;;;5009437;28;51849;-50
2022/09/29 10:26:47;;;;;;;;;18.00;16.75;;;;;;;;5008074;28;51053;-49
2022/09/29 10:29:32;;;;;;;;;17.00;15.00;;;;;;;;5009280;28;51012;-49
2022/09/29 10:32:03;;;;;;;;;20.00;19.00;;;;;;;;5009532;27;50835;-49
2022/09/29 10:34:29;;;;;;;;;11.75;11.75;;;;;;;;5009226;28;51082;-50
2022/09/29 10:36:54;;;;;;;;;17.75;16.00;;;;;;;;5009605;28;50978;-52
2022/09/29 10:39:51;;;;;;;;;14.25;13.25;;;;;;;;5009721;27;52472;-52
2022/09/29 10:42:30;;;;;;;;;13.75;11.25;;;;;;;;5020499;28;51312;-52
2022/09/29 10:45:01;;;;;;;;;17.50;15.75;;;;;;;;5008975;28;52726;-50
2022/09/29 10:47:27;;;;;;;;;16.75;15.25;;;;;;;;5009284;27;51078;-51
2022/09/29 10:50:11;;;;;;;;;14.50;14.25;;;;;;;;5009329;28;50854;-52
2022/09/29 10:52:36;;;;;;;;;14.75;14.25;;;;;;;;5008742;28;51323;-48
2022/09/29 10:55:02;;;;;;;;;14.00;13.75;;;;;;;;5007709;28;51449;-48
2022/09/29 10:57:30;;;;;;;;;17.25;16.50;;;;;;;;5008816;28;50851;-53
2022/09/29 10:59:56;;;;;;;;;9.75;9.75;;;;;;;;5008968;28;51103;-52
2022/09/29 11:02:39;;;;;;;;;11.00;9.75;;;;;;;;5009348;27;51079;-49
2022/09/29 11:05:15;;;;;;;;;9.25;9.25;;;;;;;;5008438;28;51865;-50
2022/09/29 11:07:47;;;;;;;;;10.00;9.75;;;;;;;;5000494;28;51065;-52
2022/09/29 11:10:31;;;;;;;;;10.00;9.25;;;;;;;;5005296;28;51073;-49
2022/09/29 11:12:57;;;;;;;;;8.75;7.50;;;;;;;;5008914;28;51175;-48
2022/09/29 11:15:25;;;;;;;;;10.75;8.50;;;;;;;;5009830;27;51640;-50
2022/09/29 11:17:50;;;;;;;;;12.25;12.25;;;;;;;;5047588;27;51118;-51
2022/09/29 11:20:17;;;;;;;;;13.75;11.75;;;;;;;;5008503;28;51093;-50
2022/09/29 11:22:42;;;;;;;;;11.00;8.50;;;;;;;;4990927;28;51222;-50
2022/09/29 11:25:19;;;;;;;;;15.50;15.50;;;;;;;;5008452;27;51760;-50
2022/09/29 11:27:47;;;;;;;;;14.25;13.75;;;;;;;;5008428;28;51070;-48
2022/09/29 11:30:18;;;;;;;;;16.25;16.00;;;;;;;;5006713;28;51048;-51
2022/09/29 11:32:57;;;;;;;;;15.75;15.25;;;;;;;;5008386;28;51055;-52
2022/09/29 11:35:28;;;;;;;;;15.00;13.75;;;;;;;;5008024;28;52987;-50
2022/09/29 11:37:56;;;;;;;;;13.25;13.00;;;;;;;;5008014;27;51030;-51
2022/09/29 11:40:22;;;;;;;;;11.75;10.75;;;;;;;;5008496;28;51079;-50
2022/09/29 11:42:57;;;;;;;;;13.25;11.25;;;;;;;;5008570;28;51005;-51
2022/09/29 11:45:29;;;;;;;;;16.25;14.75;;;;;;;;5007719;28;51742;-52
2022/09/29 11:47:54;;;;;;;;;9.50;9.50;;;;;;;;5008350;27;50978;-51
2022/09/29 11:50:29;;;;;;;;;12.75;12.50;;;;;;;;5008345;27;51072;-53
2022/09/29 11:53:13;;;;;;;;;11.00;11.00;;;;;;;;5009898;28;51154;-50
2022/09/29 11:55:47;;;;;;;;;8.25;8.25;;;;;;;;5010889;28;52024;-52
2022/09/29 11:58:45;;;;;;;;;8.00;7.50;;;;;;;;5011033;27;51045;-52
2022/09/29 12:01:29;;;;;;;;;5.75;4.00;;;;;;;;5068965;27;52571;-49
2022/09/29 12:04:14;;;;;;;;;8.75;8.00;;;;;;;;5036047;27;51235;-48
2022/09/29 12:06:48;;;;;;;;;5.25;5.25;;;;;;;;5010880;27;51752;-50
2022/09/29 12:09:19;;;;;;;;;6.75;6.75;;;;;;;;5011134;27;51016;-51
2022/09/29 12:11:56;;;;;;;;;7.00;7.00;;;;;;;;5008647;27;50865;-51
2022/09/29 12:14:23;;;;;;;;;7.00;5.33;;;;;;;;5020073;27;50923;-52
2022/09/29 12:17:08;;;;;;;;;6.00;6.00;;;;;;;;5053210;27;50946;-50
2022/09/29 12:19:37;;;;;;;;;6.00;6.00;;;;;;;;5010925;27;50946;-53
2022/09/29 12:22:06;;;;;;;;;9.00;8.50;;;;;;;;5011055;28;50908;-50
2022/09/29 12:24:32;;;;;;;;;9.00;9.00;;;;;;;;5010862;27;51270;-51
2022/09/29 12:26:58;;;;;;;;;12.00;11.25;;;;;;;;5010567;27;51523;-50
2022/09/29 12:29:35;;;;;;;;;14.50;13.75;;;;;;;;5010771;28;51362;-53
2022/09/29 12:32:03;;;;;;;;;15.75;15.00;;;;;;;;5010624;28;51094;-50
2022/09/29 12:34:35;;;;;;;;;14.00;13.00;;;;;;;;5010581;27;50892;-50
2022/09/29 12:37:11;;;;;;;;;14.25;12.25;;;;;;;;5010533;27;52236;-50
2022/09/29 12:39:40;;;;;;;;;14.50;13.00;;;;;;;;5010842;28;50995;-50
2022/09/29 12:42:17;;;;;;;;;11.50;11.25;;;;;;;;5010811;27;51074;-50
2022/09/29 12:44:47;;;;;;;;;16.00;16.00;;;;;;;;5010849;27;50962;-50
2022/09/29 12:47:22;;;;;;;;;13.00;11.25;;;;;;;;5010334;28;51982;-52
2022/09/29 12:50:02;;;;;;;;;11.50;10.00;;;;;;;;4999136;28;50972;-50
2022/09/29 12:52:37;;;;;;;;;7.50;7.00;;;;;;;;5011192;27;50975;-50
2022/09/29 12:55:07;;;;;;;;;8.33;8.00;;;;;;;;5010950;28;51256;-51
2022/09/29 12:57:35;;;;;;;;;37.50;32.00;;;;;;;;5009981;28;51840;-54
2022/09/29 13:00:03;;;;;;;;;13.25;12.50;;;;;;;;5010051;28;51155;-52
2022/09/29 13:02:47;;;;;;;;;15.25;14.25;;;;;;;;5077888;27;51057;-51
2022/09/29 13:05:32;;;;;;;;;12.25;12.00;;;;;;;;5010208;28;51394;-51
2022/09/29 13:07:57;;;;;;;;;12.00;12.00;;;;;;;;5000088;28;51660;-51
2022/09/29 13:10:32;;;;;;;;;12.50;11.75;;;;;;;;5008596;28;51172;-51
2022/09/29 13:13:12;;;;;;;;;11.25;9.75;;;;;;;;5010429;27;50965;-50
2022/09/29 13:15:55;;;;;;;;;13.25;12.25;;;;;;;;5022504;27;51369;-50
2022/09/29 13:18:21;;;;;;;;;11.25;11.00;;;;;;;;5021071;27;51978;-50
2022/09/29 13:20:50;;;;;;;;;10.50;10.25;;;;;;;;5010593;27;51051;-52
2022/09/29 13:23:21;;;;;;;;;13.00;12.00;;;;;;;;5010208;28;51228;-49
2022/09/29 13:26:01;;;;;;;;;13.25;12.00;;;;;;;;5010247;28;50920;-49
2022/09/29 13:28:30;;;;;;;;;9.25;9.00;;;;;;;;5009594;28;51968;-49
2022/09/29 13:30:59;;;;;;;;;11.00;11.00;;;;;;;;5009898;28;51010;-50
2022/09/29 13:33:25;;;;;;;;;11.00;9.50;;;;;;;;5009851;28;50904;-52
2022/09/29 13:35:51;;;;;;;;;10.00;9.00;;;;;;;;5010178;27;50889;-51
2022/09/29 13:38:22;;;;;;;;;10.75;9.75;;;;;;;;5009649;28;52034;-53
2022/09/29 13:41:05;;;;;;;;;11.00;10.25;;;;;;;;5009879;28;50926;-53
2022/09/29 13:43:39;;;;;;;;;3.25;3.25;;;;;;;;5009615;28;50939;-53
2022/09/29 13:46:23;;;;;;;;;10.50;10.25;;;;;;;;5009849;28;50952;-51
2022/09/29 13:48:52;;;;;;;;;12.50;11.50;;;;;;;;5009654;28;51067;-50
2022/09/29 13:51:22;;;;;;;;;13.00;12.00;;;;;;;;5009855;28;51016;-51
2022/09/29 13:54:07;;;;;;;;;14.50;13.75;;;;;;;;5010695;28;51161;-49
2022/09/29 13:56:32;;;;;;;;;10.50;9.00;;;;;;;;5009873;28;51447;-50
2022/09/29 13:58:58;;;;;;;;;11.25;10.75;;;;;;;;5009338;27;51121;-48
2022/09/29 14:01:29;;;;;;;;;12.75;12.75;;;;;;;;5065291;27;51218;-53
2022/09/29 14:03:54;;;;;;;;;9.50;8.50;;;;;;;;5019041;27;51118;-50
2022/09/29 14:06:21;;;;;;;;;12.25;12.25;;;;;;;;5009494;28;50957;-53
2022/09/29 14:09:06;;;;;;;;;7.25;7.00;;;;;;;;5009700;28;53068;-53
2022/09/29 14:11:37;;;;;;;;;8.00;7.00;;;;;;;;5009329;28;51068;-52
2022/09/29 14:14:08;;;;;;;;;7.33;7.33;;;;;;;;5011346;27;51181;-50
2022/09/29 14:16:52;;;;;;;;;9.00;9.00;;;;;;;;5052912;27;50963;-49
2022/09/29 14:19:34;;;;;;;;;18.00;17.75;;;;;;;;5009002;28;51694;-52
2022/09/29 14:22:00;;;;;;;;;7.00;7.00;;;;;;;;5009463;28;51011;-49
2022/09/29 14:24:34;;;;;;;;;9.00;8.00;;;;;;;;5007990;28;51649;-51
2022/09/29 14:27:19;;;;;;;;;7.00;6.00;;;;;;;;5009832;27;50879;-49
2022/09/29 14:29:50;;;;;;;;;5.33;5.33;;;;;;;;5019097;27;52633;-50
2022/09/29 14:32:18;;;;;;;;;4.00;4.00;;;;;;;;5009461;28;50925;-54
2022/09/29 14:34:44;;;;;;;;;5.25;5.25;;;;;;;;5009521;28;51194;-51
2022/09/29 14:37:16;;;;;;;;;5.00;4.00;;;;;;;;5009518;28;50991;-49
2022/09/29 14:40:26;;;;;;;;;5.00;4.00;;;;;;;;5009192;27;52025;-49
2022/09/29 14:42:27;;;;;;;;;5.00;5.00;;;;;;;;5009144;28;51042;-51
2022/09/29 14:53:16;;;;;;;;;6.00;6.00;;;;;;;;5010778;28;51073;-52
2022/09/29 14:55:41;;;;;;;;;6.00;5.00;;;;;;;;5009034;28;50985;-51
2022/09/29 14:58:19;;;;;;;;;7.67;7.00;;;;;;;;5009299;27;50918;-51
2022/09/29 15:00:52;;;;;;;;;4.67;4.67;;;;;;;;5012592;27;51931;-53